Main page
Satellite images Climate Cyclones Lightning AirportsFAQ Languages Contact Newsletter About
Weather : Europe Africa North America South America Asia Australia-Oceania Others

5361, Hat Yai, Hat Yai International Airport

latitude: , longitude: Thailand, elevation: 06-55N m


METAR: VTSS 270030Z 00000KT 6000 FEW020 SCT100 27/25 Q1008 NOSIG